Time;durP1;ratioP1;P1;durP2;ratioP2;P2;SDS_P1;SDS_P2;PMS_P1;PMS_P2;Temp;Humidity;BMP_temperature;BMP_pressure;BME280_temperature;BME280_humidity;BME280_pressure;Samples;Min_cycle;Max_cycle;Signal;HPM_P1;HPM_P2
2023/11/13 00:02:00;;;;;;;9.07;6.93;;;9.60;68.00;11.50;100552.00;;;;5010169;28;20713;-77
2023/11/13 00:04:27;;;;;;;9.43;7.00;;;9.60;68.10;11.50;100550.00;;;;5011164;28;20224;-77
2023/11/13 00:06:54;;;;;;;11.82;6.88;;;9.60;68.10;11.50;100548.00;;;;5010930;28;20925;-77
2023/11/13 00:09:21;;;;;;;13.68;7.07;;;9.60;68.20;11.40;100559.00;;;;5009941;28;20193;-77
2023/11/13 00:11:49;;;;;;;9.45;6.90;;;9.50;68.70;11.40;100556.00;;;;5010728;28;20197;-77
2023/11/13 00:14:17;;;;;;;8.23;6.30;;;9.50;68.10;11.40;100542.00;;;;5001921;28;20189;-77
2023/11/13 00:16:44;;;;;;;8.43;6.85;;;9.50;68.90;11.40;100527.00;;;;5008563;28;20207;-77
2023/11/13 00:19:11;;;;;;;9.25;7.15;;;9.50;68.20;11.40;100529.00;;;;5008545;28;20200;-78
2023/11/13 00:21:38;;;;;;;7.72;6.93;;;9.50;68.20;11.40;100530.00;;;;5011467;28;20192;-77
2023/11/13 00:24:07;;;;;;;10.20;7.53;;;9.50;68.20;11.40;100536.00;;;;5007664;28;20249;-78
2023/11/13 00:26:34;;;;;;;8.07;7.00;;;9.50;68.20;11.40;100527.00;;;;5007677;28;20196;-78
2023/11/13 00:29:03;;;;;;;7.18;6.07;;;9.50;68.20;11.40;100517.00;;;;5007329;28;20283;-77
2023/11/13 00:31:30;;;;;;;7.75;6.38;;;9.50;68.20;11.40;100521.00;;;;5008686;28;20283;-77
2023/11/13 00:33:57;;;;;;;7.28;5.70;;;9.50;68.30;11.40;100510.00;;;;5008442;28;20659;-77
2023/11/13 00:36:24;;;;;;;11.55;6.45;;;9.50;68.30;11.40;100509.00;;;;5008377;28;20207;-77
2023/11/13 00:38:51;;;;;;;9.55;5.88;;;9.50;68.30;11.40;100513.00;;;;5009270;28;20573;-77
2023/11/13 00:41:19;;;;;;;8.00;6.95;;;9.50;68.20;11.40;100520.00;;;;5009847;28;20207;-77
2023/11/13 00:43:47;;;;;;;8.55;5.93;;;9.50;68.30;11.40;100510.00;;;;5009546;28;20703;-77
2023/11/13 00:46:15;;;;;;;10.43;6.10;;;9.50;68.20;11.30;100516.00;;;;5007993;28;20203;-77
2023/11/13 00:48:42;;;;;;;7.50;5.60;;;9.50;68.30;11.30;100507.00;;;;5004368;28;20209;-77
2023/11/13 00:51:09;;;;;;;7.57;5.93;;;9.50;68.30;11.30;100515.00;;;;5001457;28;20203;-78
2023/11/13 00:53:37;;;;;;;10.90;6.47;;;9.50;68.70;11.30;100498.00;;;;5009703;28;20642;-78
2023/11/13 00:56:06;;;;;;;10.85;6.70;;;9.50;68.30;11.30;100498.00;;;;5009204;28;20835;-77
2023/11/13 00:58:34;;;;;;;7.45;5.85;;;9.50;68.40;11.30;100482.00;;;;5006569;28;20188;-77
2023/11/13 01:01:01;;;;;;;6.85;6.00;;;9.40;68.30;11.30;100482.00;;;;5008716;28;20678;-77
2023/11/13 01:03:29;;;;;;;9.05;6.47;;;9.50;68.30;11.30;100484.00;;;;5008494;28;20220;-77
2023/11/13 01:05:56;;;;;;;8.90;6.78;;;9.40;68.30;11.30;100482.00;;;;5008039;28;20591;-77
2023/11/13 01:08:24;;;;;;;8.40;6.47;;;9.40;68.30;11.30;100471.00;;;;5009192;28;20207;-77
2023/11/13 01:10:52;;;;;;;7.22;6.18;;;9.40;68.30;11.30;100469.00;;;;5008775;28;20243;-77
2023/11/13 01:13:19;;;;;;;7.57;5.80;;;9.40;68.30;11.30;100463.00;;;;5010330;28;20725;-77
2023/11/13 01:15:48;;;;;;;7.75;6.18;;;9.40;68.90;11.30;100471.00;;;;5008100;28;20279;-77
2023/11/13 01:18:17;;;;;;;7.05;5.97;;;9.40;68.30;11.30;100466.00;;;;5007506;28;20678;-77
2023/11/13 01:20:46;;;;;;;9.18;5.38;;;9.40;68.30;11.30;100458.00;;;;5007558;28;20200;-77
2023/11/13 01:23:16;;;;;;;7.00;5.60;;;9.40;68.30;11.30;100461.00;;;;5007410;28;20201;-77
2023/11/13 01:25:44;;;;;;;9.18;5.85;;;9.40;68.30;11.30;100466.00;;;;5007237;28;20277;-77
2023/11/13 01:28:11;;;;;;;6.82;5.72;;;9.40;68.30;11.30;100455.00;;;;5009652;28;20197;-77
2023/11/13 01:30:38;;;;;;;7.50;5.20;;;9.40;68.30;11.30;100461.00;;;;5012400;28;20305;-77
2023/11/13 01:33:06;;;;;;;8.00;5.72;;;9.40;68.30;11.30;100465.00;;;;5006115;28;20293;-77
2023/11/13 01:35:33;;;;;;;6.43;5.43;;;9.40;68.30;11.30;100471.00;;;;5007928;28;20663;-77
2023/11/13 01:38:02;;;;;;;9.90;5.78;;;9.40;69.00;11.20;100472.00;;;;5003557;28;20292;-77
2023/11/13 01:40:29;;;;;;;8.18;5.30;;;9.40;68.30;11.30;100469.00;;;;5004346;28;20921;-77
2023/11/13 01:42:56;;;;;;;7.28;5.47;;;9.40;68.30;11.20;100464.00;;;;5006235;28;20197;-77
2023/11/13 01:45:23;;;;;;;6.70;5.82;;;9.40;68.30;11.30;100467.00;;;;5008278;28;20227;-77
2023/11/13 01:47:51;;;;;;;6.30;5.50;;;9.40;68.40;11.30;100466.00;;;;5009110;28;20201;-77
2023/11/13 01:50:18;;;;;;;8.52;5.65;;;9.30;68.30;11.30;100461.00;;;;5007964;28;20725;-77
2023/11/13 01:52:45;;;;;;;8.73;5.82;;;9.40;68.50;11.30;100465.00;;;;5008930;28;20204;-77
2023/11/13 01:55:14;;;;;;;7.88;5.63;;;9.40;68.60;11.30;100464.00;;;;5001313;28;20203;-77
2023/11/13 01:57:44;;;;;;;8.70;5.93;;;9.40;68.70;11.30;100473.00;;;;5008209;28;20251;-78
2023/11/13 02:00:13;;;;;;;8.38;5.53;;;9.40;68.70;11.30;100473.00;;;;5009033;28;20207;-77
2023/11/13 02:02:40;;;;;;;8.70;5.68;;;9.40;68.70;11.30;100466.00;;;;5014612;28;20216;-77
2023/11/13 02:05:08;;;;;;;7.20;5.13;;;9.40;68.70;11.40;100456.00;;;;5008375;28;20323;-77
2023/11/13 02:07:36;;;;;;;7.05;5.47;;;9.40;68.80;11.40;100445.00;;;;5007760;28;20197;-77
2023/11/13 02:10:04;;;;;;;7.22;5.60;;;9.50;68.90;11.40;100441.00;;;;5008167;28;20205;-77
2023/11/13 02:12:34;;;;;;;6.93;5.47;;;9.50;68.90;11.40;100434.00;;;;5009377;28;20189;-77
2023/11/13 02:15:03;;;;;;;7.80;4.90;;;9.50;68.80;11.40;100430.00;;;;5015965;28;20201;-77
2023/11/13 02:17:29;;;;;;;7.22;6.15;;;9.50;68.80;11.50;100433.00;;;;5016504;28;20204;-77
2023/11/13 02:19:56;;;;;;;7.10;5.40;;;9.50;69.00;11.50;100431.00;;;;5007978;28;20193;-77
2023/11/13 02:22:23;;;;;;;7.85;5.45;;;9.50;68.90;11.50;100432.00;;;;5008542;28;20199;-77
2023/11/13 02:24:52;;;;;;;7.00;5.35;;;9.60;68.90;11.50;100432.00;;;;5006897;28;20217;-77
2023/11/13 02:27:20;;;;;;;6.30;4.82;;;9.60;68.90;11.50;100419.00;;;;5006278;28;20205;-77
2023/11/13 02:29:47;;;;;;;7.85;5.85;;;9.60;68.90;11.50;100408.00;;;;5007589;28;20217;-77
2023/11/13 02:32:14;;;;;;;7.18;5.28;;;9.60;68.90;11.60;100407.00;;;;5003287;28;20194;-77
2023/11/13 02:34:42;;;;;;;6.63;5.85;;;9.60;69.50;11.60;100412.00;;;;5005491;28;20605;-77
2023/11/13 02:37:10;;;;;;;8.95;5.22;;;9.70;68.90;11.60;100408.00;;;;5008575;28;20200;-77
2023/11/13 02:39:37;;;;;;;7.38;5.53;;;9.70;68.90;11.60;100403.00;;;;5011141;28;20201;-77
2023/11/13 02:42:07;;;;;;;9.30;5.75;;;9.70;68.90;11.60;100404.00;;;;4999049;28;20755;-77
2023/11/13 02:44:34;;;;;;;7.70;5.43;;;9.70;68.90;11.60;100403.00;;;;5008643;28;20217;-77
2023/11/13 02:47:01;;;;;;;6.88;5.53;;;9.70;68.80;11.70;100399.00;;;;5007179;28;20201;-77
2023/11/13 02:49:28;;;;;;;6.60;5.88;;;9.70;68.80;11.70;100399.00;;;;5008365;28;20651;-77
2023/11/13 02:51:55;;;;;;;7.00;5.40;;;9.80;68.90;11.70;100401.00;;;;5005222;28;20201;-77
2023/11/13 02:54:22;;;;;;;6.18;4.82;;;9.80;68.90;11.70;100393.00;;;;5009272;28;20200;-77
2023/11/13 02:56:49;;;;;;;6.78;5.15;;;9.80;68.90;11.70;100385.00;;;;5006480;28;20197;-77
2023/11/13 02:59:17;;;;;;;6.75;5.43;;;9.80;68.90;11.70;100387.00;;;;5009557;28;20199;-77
2023/11/13 03:01:44;;;;;;;7.03;5.57;;;9.80;68.80;11.70;100394.00;;;;5010977;28;20193;-77
2023/11/13 03:04:11;;;;;;;5.07;4.57;;;9.80;68.80;11.80;100393.00;;;;5011767;28;20673;-77
2023/11/13 03:06:39;;;;;;;7.07;5.25;;;9.80;68.80;11.80;100404.00;;;;5011831;28;20235;-77
2023/11/13 03:09:06;;;;;;;7.28;5.20;;;9.80;68.80;11.80;100413.00;;;;5011441;28;20195;-77
2023/11/13 03:11:33;;;;;;;5.80;5.00;;;9.90;68.90;11.80;100421.00;;;;5011361;28;20208;-77
2023/11/13 03:14:00;;;;;;;6.18;5.13;;;9.90;68.90;11.80;100421.00;;;;5011855;28;20284;-77
2023/11/13 03:16:28;;;;;;;8.02;5.45;;;9.90;69.00;11.80;100417.00;;;;5011040;28;20700;-77
2023/11/13 03:18:55;;;;;;;8.23;4.47;;;9.90;69.00;11.90;100418.00;;;;5011206;28;20284;-78
2023/11/13 03:21:23;;;;;;;6.22;5.15;;;9.90;69.10;11.90;100429.00;;;;5008966;28;20204;-77
2023/11/13 03:23:50;;;;;;;5.97;4.93;;;10.00;69.10;11.90;100427.00;;;;5010932;28;20201;-77
2023/11/13 03:26:18;;;;;;;6.10;4.95;;;10.00;69.20;12.00;100434.00;;;;5012136;28;20308;-77
2023/11/13 03:28:45;;;;;;;5.72;5.03;;;10.00;69.10;12.00;100435.00;;;;5016758;28;20270;-78
2023/11/13 03:31:13;;;;;;;6.38;5.38;;;10.10;69.20;12.00;100433.00;;;;5012280;28;20203;-77
2023/11/13 03:33:42;;;;;;;7.40;5.60;;;10.10;69.20;12.00;100427.00;;;;5010029;28;20603;-77
2023/11/13 03:36:10;;;;;;;6.75;5.03;;;10.10;69.20;12.10;100435.00;;;;5010546;28;20211;-77
2023/11/13 03:38:37;;;;;;;6.30;4.95;;;10.10;69.10;12.10;100428.00;;;;5011477;28;20196;-78
2023/11/13 03:41:04;;;;;;;6.97;5.60;;;10.20;69.30;12.10;100395.00;;;;5009992;28;20203;-78
2023/11/13 03:43:31;;;;;;;6.63;5.47;;;10.20;69.20;12.20;100395.00;;;;5010436;28;20670;-77
2023/11/13 03:45:59;;;;;;;6.15;4.82;;;10.20;69.20;12.20;100403.00;;;;5017969;28;20221;-77
2023/11/13 03:48:26;;;;;;;6.38;4.65;;;10.30;69.20;12.20;100410.00;;;;5009871;28;20571;-78
2023/11/13 03:50:54;;;;;;;5.32;4.78;;;10.30;69.20;12.20;100410.00;;;;5007238;28;20201;-77
2023/11/13 03:53:21;;;;;;;5.60;5.03;;;10.30;69.20;12.30;100419.00;;;;5006677;28;20688;-78
2023/11/13 03:55:48;;;;;;;6.10;5.10;;;10.30;69.10;12.30;100416.00;;;;5007792;28;20578;-78
2023/11/13 03:58:16;;;;;;;6.53;4.82;;;10.40;69.20;12.30;100404.00;;;;5015279;28;20200;-78
2023/11/13 04:00:43;;;;;;;7.90;4.25;;;10.40;69.10;12.30;100404.00;;;;5014488;28;20483;-77
2023/11/13 04:03:10;;;;;;;5.82;4.90;;;10.40;69.10;12.40;100404.00;;;;5014539;28;20197;-77
2023/11/13 04:05:37;;;;;;;6.53;4.93;;;10.40;69.10;12.40;100394.00;;;;5010712;28;20233;-77
2023/11/13 04:08:06;;;;;;;5.38;4.47;;;10.50;69.10;12.40;100388.00;;;;5017065;28;20247;-77
2023/11/13 04:10:34;;;;;;;6.25;4.55;;;10.50;69.10;12.40;100385.00;;;;5006373;28;20197;-77
2023/11/13 04:13:01;;;;;;;5.35;4.72;;;10.50;69.10;12.40;100374.00;;;;5023388;28;20319;-77
2023/11/13 04:15:28;;;;;;;6.93;4.90;;;10.50;69.10;12.50;100366.00;;;;5018309;28;20301;-77
2023/11/13 04:17:55;;;;;;;5.20;4.70;;;10.60;69.10;12.50;100369.00;;;;5009934;28;20292;-77
2023/11/13 04:20:23;;;;;;;8.07;4.80;;;10.60;69.20;12.50;100365.00;;;;5009710;28;20537;-77
2023/11/13 04:22:51;;;;;;;6.80;5.05;;;10.60;69.10;12.50;100369.00;;;;5009836;28;20697;-78
2023/11/13 04:25:19;;;;;;;5.63;4.53;;;10.60;69.10;12.50;100354.00;;;;5009620;28;20221;-77
2023/11/13 04:27:46;;;;;;;5.35;4.25;;;10.60;69.10;12.60;100351.00;;;;5010399;28;20189;-77
2023/11/13 04:30:14;;;;;;;6.60;4.65;;;10.70;69.20;12.60;100335.00;;;;5016990;28;20212;-77
2023/11/13 04:32:42;;;;;;;6.28;4.20;;;10.70;69.20;12.60;100333.00;;;;5008917;28;20197;-78
2023/11/13 04:35:08;;;;;;;7.60;4.45;;;10.70;69.10;12.60;100333.00;;;;5011376;28;20193;-78
2023/11/13 04:37:35;;;;;;;7.00;4.93;;;10.70;69.10;12.60;100314.00;;;;5010921;28;20555;-77
2023/11/13 04:40:04;;;;;;;5.60;4.45;;;10.70;69.20;12.60;100314.00;;;;5013275;28;20211;-77
2023/11/13 04:42:33;;;;;;;6.25;4.78;;;10.80;69.20;12.70;100315.00;;;;5009010;28;20203;-78
2023/11/13 04:45:00;;;;;;;6.28;4.30;;;10.80;69.20;12.70;100312.00;;;;5017685;28;20223;-77
2023/11/13 04:47:27;;;;;;;6.32;4.53;;;10.80;69.20;12.70;100310.00;;;;5010018;28;20585;-77
2023/11/13 04:49:54;;;;;;;6.05;4.35;;;10.80;69.20;12.70;100315.00;;;;5009543;28;20201;-77
2023/11/13 04:52:21;;;;;;;5.93;4.50;;;10.80;69.10;12.70;100330.00;;;;5008547;28;20201;-77
2023/11/13 04:54:48;;;;;;;6.28;5.07;;;10.90;69.20;12.70;100325.00;;;;5010847;28;20299;-77
2023/11/13 04:57:15;;;;;;;5.75;4.82;;;10.90;69.20;12.80;100323.00;;;;5009055;28;20193;-77
2023/11/13 04:59:43;;;;;;;5.90;4.68;;;10.90;69.20;12.80;100325.00;;;;5010100;28;20566;-78
2023/11/13 05:02:11;;;;;;;5.75;4.75;;;10.90;69.20;12.80;100331.00;;;;5008320;28;20581;-77
2023/11/13 05:04:38;;;;;;;6.32;4.35;;;10.90;69.20;12.80;100333.00;;;;5007489;28;20201;-78
2023/11/13 05:07:05;;;;;;;8.30;4.70;;;10.90;69.10;12.80;100330.00;;;;5010879;28;20196;-77
2023/11/13 05:09:32;;;;;;;5.55;4.40;;;10.90;69.20;12.80;100322.00;;;;5007277;28;20202;-77
2023/11/13 05:12:00;;;;;;;4.45;3.85;;;11.00;69.10;12.80;100319.00;;;;5011204;28;20288;-77
2023/11/13 05:14:27;;;;;;;5.63;4.57;;;11.00;69.10;12.80;100311.00;;;;5008187;28;20288;-77
2023/11/13 05:16:57;;;;;;;5.80;4.78;;;11.00;69.10;12.80;100305.00;;;;5007648;28;20201;-78
2023/11/13 05:19:24;;;;;;;7.28;4.70;;;11.00;69.20;12.80;100299.00;;;;5007016;28;20197;-77
2023/11/13 05:21:52;;;;;;;5.18;4.43;;;11.00;69.20;12.90;100297.00;;;;5000065;28;20285;-77
2023/11/13 05:24:20;;;;;;;4.93;4.28;;;11.00;69.20;12.90;100291.00;;;;5016621;28;20207;-78
2023/11/13 05:26:47;;;;;;;5.07;4.57;;;11.00;69.20;12.90;100280.00;;;;5008340;28;20228;-77
2023/11/13 05:29:14;;;;;;;7.90;5.38;;;11.10;69.30;12.90;100286.00;;;;5011185;28;20593;-78
2023/11/13 05:31:43;;;;;;;7.63;4.93;;;11.00;69.20;12.90;100272.00;;;;5008424;28;20670;-77
2023/11/13 05:34:11;;;;;;;6.05;4.55;;;11.10;69.30;12.90;100271.00;;;;5008218;28;20203;-77
2023/11/13 05:36:38;;;;;;;6.60;4.43;;;11.10;69.20;12.90;100270.00;;;;5008149;28;20192;-78
2023/11/13 05:39:07;;;;;;;7.20;4.45;;;11.10;69.30;12.90;100269.00;;;;4997906;28;20201;-78
2023/11/13 05:41:34;;;;;;;6.72;5.15;;;11.10;69.30;12.90;100253.00;;;;5005686;28;20197;-77
2023/11/13 05:44:02;;;;;;;9.35;5.28;;;11.10;69.30;12.90;100241.00;;;;5007582;28;20193;-77
2023/11/13 05:46:30;;;;;;;6.00;4.72;;;11.10;69.30;13.00;100246.00;;;;5012767;28;20653;-77
2023/11/13 05:48:57;;;;;;;7.30;5.25;;;11.10;69.30;13.00;100236.00;;;;5015566;28;20300;-77
2023/11/13 05:51:26;;;;;;;6.75;4.60;;;11.10;69.30;13.00;100237.00;;;;5008139;28;20215;-77
2023/11/13 05:53:53;;;;;;;7.55;5.15;;;11.10;69.30;13.00;100236.00;;;;5007530;28;20203;-77
2023/11/13 05:56:20;;;;;;;6.38;4.78;;;11.10;69.30;13.00;100232.00;;;;5008127;28;20211;-77
2023/11/13 05:58:47;;;;;;;8.07;4.90;;;11.10;69.30;13.00;100230.00;;;;5007789;28;20734;-78
2023/11/13 06:01:18;;;;;;;5.85;4.95;;;11.20;69.50;13.00;100224.00;;;;5008835;28;20207;-78
2023/11/13 06:03:46;;;;;;;7.38;5.18;;;11.20;69.50;13.00;100222.00;;;;5016428;28;20193;-77
2023/11/13 06:06:13;;;;;;;7.25;5.35;;;11.20;69.60;13.00;100220.00;;;;5000635;28;20224;-77
2023/11/13 06:08:42;;;;;;;8.43;5.60;;;11.20;69.60;13.00;100217.00;;;;5015661;28;20279;-77
2023/11/13 06:11:09;;;;;;;8.73;5.38;;;11.20;69.60;13.00;100206.00;;;;5007817;28;20683;-77
2023/11/13 06:13:36;;;;;;;7.38;4.75;;;11.20;69.60;13.00;100223.00;;;;4999858;28;20215;-77
2023/11/13 06:16:04;;;;;;;8.45;4.72;;;11.20;69.60;13.00;100221.00;;;;5013524;28;20200;-78
2023/11/13 06:18:31;;;;;;;7.18;5.00;;;11.20;69.60;13.00;100221.00;;;;5010830;28;20192;-78
2023/11/13 06:20:58;;;;;;;9.63;5.18;;;11.30;69.90;13.00;100221.00;;;;5008918;28;20241;-78
2023/11/13 06:23:25;;;;;;;8.02;5.15;;;11.30;69.70;13.00;100217.00;;;;4998946;28;20205;-77
2023/11/13 06:25:54;;;;;;;7.18;4.47;;;11.30;69.80;13.10;100202.00;;;;5002846;28;20220;-78
2023/11/13 06:28:21;;;;;;;7.78;5.03;;;11.30;69.80;13.10;100207.00;;;;4998966;28;20189;-77
2023/11/13 06:30:48;;;;;;;9.90;5.53;;;11.30;69.80;13.10;100206.00;;;;5005729;28;20209;-78
2023/11/13 06:33:15;;;;;;;7.63;5.45;;;11.30;69.80;13.10;100214.00;;;;5007621;28;20228;-77
2023/11/13 06:35:43;;;;;;;8.35;5.63;;;11.30;69.80;13.10;100223.00;;;;5007846;28;20225;-78
2023/11/13 06:38:10;;;;;;;6.53;4.95;;;11.30;69.90;13.10;100215.00;;;;5006711;28;20860;-77
2023/11/13 06:40:37;;;;;;;5.97;4.72;;;11.30;69.80;13.10;100209.00;;;;5007735;28;20201;-77
2023/11/13 06:43:05;;;;;;;7.70;5.50;;;11.40;69.90;13.20;100216.00;;;;5005135;28;20584;-77
2023/11/13 06:45:34;;;;;;;8.07;5.13;;;11.40;69.90;13.20;100211.00;;;;5004336;28;20311;-78
2023/11/13 06:48:01;;;;;;;7.50;5.43;;;11.40;70.00;13.20;100213.00;;;;5004067;28;20291;-77
2023/11/13 06:50:28;;;;;;;11.23;5.85;;;11.40;70.00;13.20;100205.00;;;;5006824;28;20219;-77
2023/11/13 06:52:55;;;;;;;7.43;5.53;;;11.40;70.10;13.20;100204.00;;;;4994800;28;20200;-78
2023/11/13 06:55:22;;;;;;;9.88;5.60;;;11.50;70.00;13.30;100198.00;;;;5007496;28;20207;-77
2023/11/13 06:57:49;;;;;;;7.65;5.18;;;11.50;70.10;13.30;100188.00;;;;5006419;28;20577;-77
2023/11/13 07:00:19;;;;;;;7.07;5.57;;;11.50;70.10;13.30;100188.00;;;;5004208;28;20225;-78
2023/11/13 07:02:49;;;;;;;7.75;5.38;;;11.50;70.10;13.30;100193.00;;;;5004840;28;20202;-77
2023/11/13 07:05:16;;;;;;;6.70;5.05;;;11.50;70.10;13.30;100200.00;;;;5015327;28;20232;-78
2023/11/13 07:07:43;;;;;;;8.00;5.55;;;11.50;70.10;13.30;100197.00;;;;5017446;28;20197;-78
2023/11/13 07:10:13;;;;;;;7.88;5.00;;;11.50;70.10;13.40;100201.00;;;;5007695;28;20288;-78
2023/11/13 07:12:40;;;;;;;4.82;3.75;;;11.60;70.10;13.40;100185.00;;;;5014498;28;20199;-78
2023/11/13 07:15:08;;;;;;;8.80;5.28;;;11.60;70.10;13.40;100184.00;;;;5005434;28;20204;-78
2023/11/13 07:17:37;;;;;;;6.43;4.80;;;11.60;70.20;13.40;100177.00;;;;5005303;28;20212;-78
2023/11/13 07:20:06;;;;;;;5.60;4.25;;;11.60;70.20;13.50;100172.00;;;;5010514;28;20211;-78
2023/11/13 07:22:33;;;;;;;7.07;4.82;;;11.60;70.30;13.50;100169.00;;;;5027273;28;20284;-78
2023/11/13 07:25:00;;;;;;;7.90;5.35;;;11.70;70.30;13.50;100151.00;;;;5016064;28;20255;-78
2023/11/13 07:27:27;;;;;;;7.28;4.82;;;11.70;70.30;13.60;100145.00;;;;5008752;28;20234;-78
2023/11/13 07:29:56;;;;;;;9.05;4.47;;;11.70;70.30;13.60;100144.00;;;;5015812;28;20956;-78
2023/11/13 07:32:25;;;;;;;6.35;4.55;;;11.70;70.30;13.60;100146.00;;;;5012852;28;20662;-78
2023/11/13 07:34:55;;;;;;;6.28;4.50;;;11.80;70.40;13.60;100141.00;;;;5004773;28;20567;-78
2023/11/13 07:37:23;;;;;;;5.45;4.15;;;11.80;70.40;13.60;100129.00;;;;5012003;28;20201;-78
2023/11/13 07:39:51;;;;;;;7.60;4.22;;;11.80;70.40;13.70;100121.00;;;;5008784;28;20203;-78
2023/11/13 07:42:18;;;;;;;5.28;4.10;;;11.80;70.40;13.70;100122.00;;;;5009427;28;20204;-78
2023/11/13 07:44:49;;;;;;;4.90;4.25;;;11.90;70.50;13.70;100124.00;;;;5023367;28;20197;-78
2023/11/13 07:47:16;;;;;;;6.03;4.38;;;11.90;70.50;13.80;100134.00;;;;5010987;28;20235;-78
2023/11/13 07:49:44;;;;;;;7.13;3.97;;;11.90;70.50;13.80;100130.00;;;;5016012;28;20196;-78
2023/11/13 07:52:13;;;;;;;5.40;3.70;;;11.90;70.50;13.80;100133.00;;;;5022557;28;20205;-78
2023/11/13 07:54:40;;;;;;;5.13;4.05;;;12.00;70.60;13.80;100122.00;;;;5002318;28;20675;-77
2023/11/13 07:57:09;;;;;;;7.15;4.22;;;12.00;70.60;13.90;100119.00;;;;5014000;28;20212;-78
2023/11/13 07:59:37;;;;;;;5.63;3.88;;;12.10;70.70;13.90;100105.00;;;;5020185;28;20662;-79
2023/11/13 08:02:04;;;;;;;4.90;3.72;;;12.10;70.70;13.90;100102.00;;;;5008266;28;20738;-79
2023/11/13 08:04:32;;;;;;;6.20;3.70;;;12.10;70.70;14.00;100093.00;;;;5005724;28;20205;-78
2023/11/13 08:06:59;;;;;;;5.82;3.70;;;12.20;70.80;14.00;100093.00;;;;5010665;28;20307;-78
2023/11/13 08:09:28;;;;;;;4.95;3.55;;;12.20;70.80;14.00;100098.00;;;;5004601;28;20205;-78
2023/11/13 08:11:55;;;;;;;7.70;3.45;;;12.20;70.80;14.10;100100.00;;;;5008143;28;20211;-78
2023/11/13 08:14:23;;;;;;;4.88;3.72;;;12.30;70.80;14.10;100099.00;;;;5009042;28;20274;-78
2023/11/13 08:16:50;;;;;;;6.50;3.90;;;12.30;70.80;14.10;100077.00;;;;5009952;28;20678;-78
2023/11/13 08:19:18;;;;;;;7.05;4.18;;;12.30;70.80;14.20;100080.00;;;;5007777;28;20208;-78
2023/11/13 08:21:46;;;;;;;7.13;4.30;;;12.40;70.90;14.20;100081.00;;;;5009297;28;20193;-78
2023/11/13 08:24:13;;;;;;;5.30;3.65;;;12.40;71.00;14.30;100076.00;;;;5011535;28;20189;-78
2023/11/13 08:26:42;;;;;;;5.70;3.78;;;12.40;71.00;14.30;100058.00;;;;5025587;28;20220;-79
2023/11/13 08:29:09;;;;;;;5.28;3.67;;;12.50;71.10;14.30;100050.00;;;;5019022;28;20271;-79
2023/11/13 08:31:36;;;;;;;7.05;3.47;;;12.50;71.10;14.40;100039.00;;;;5011184;28;20231;-80
2023/11/13 08:34:04;;;;;;;5.40;3.80;;;12.50;71.10;14.40;100041.00;;;;5012576;28;20316;-78
2023/11/13 08:36:32;;;;;;;5.03;3.20;;;12.60;71.20;14.40;100029.00;;;;5016888;28;20263;-77
2023/11/13 08:39:00;;;;;;;5.38;3.47;;;12.60;71.20;14.50;100026.00;;;;5010763;28;20217;-77
2023/11/13 08:41:28;;;;;;;3.80;3.00;;;12.70;71.20;14.50;100025.00;;;;5018603;28;20855;-76
2023/11/13 08:43:58;;;;;;;4.20;2.90;;;12.70;71.30;14.50;100016.00;;;;5010170;28;20240;-77
2023/11/13 08:46:25;;;;;;;3.15;2.63;;;12.70;71.30;14.60;100014.00;;;;5013254;28;20306;-77
2023/11/13 08:48:52;;;;;;;3.67;3.10;;;12.80;71.40;14.60;100001.00;;;;5018334;28;20196;-77
2023/11/13 08:51:27;;;;;;;3.58;3.20;;;12.80;71.50;14.60;99987.00;;;;5020310;28;20209;-77
2023/11/13 08:53:59;;;;;;;4.00;3.38;;;12.80;71.60;14.70;99961.00;;;;5014492;28;20287;-77
2023/11/13 08:56:27;;;;;;;4.68;3.80;;;12.90;71.60;14.70;99972.00;;;;5009250;28;20287;-77
2023/11/13 08:58:56;;;;;;;3.50;3.00;;;13.00;72.40;14.80;99955.00;;;;5008226;28;20565;-77
2023/11/13 09:01:25;;;;;;;3.65;3.22;;;13.00;71.80;14.80;99942.00;;;;5017970;28;20192;-76
2023/11/13 09:03:55;;;;;;;5.03;3.50;;;13.10;71.90;14.90;99957.00;;;;5004597;28;20208;-77
2023/11/13 09:06:22;;;;;;;3.88;3.35;;;13.10;72.10;14.90;99948.00;;;;5009436;28;20237;-76
2023/11/13 09:08:53;;;;;;;4.90;3.53;;;13.20;72.20;15.00;99944.00;;;;5010730;28;20611;-76
2023/11/13 09:11:21;;;;;;;4.68;3.08;;;13.20;72.20;15.00;99942.00;;;;5017012;28;20252;-76
2023/11/13 09:13:48;;;;;;;4.25;2.80;;;13.30;72.40;15.10;99939.00;;;;5010302;28;20201;-77
2023/11/13 09:16:18;;;;;;;3.72;2.92;;;13.30;72.40;15.10;99926.00;;;;5010253;28;20203;-77
2023/11/13 09:18:48;;;;;;;3.72;2.65;;;13.40;72.50;15.20;99924.00;;;;5029784;28;20667;-77
2023/11/13 09:21:17;;;;;;;4.63;2.40;;;13.50;72.60;15.20;99920.00;;;;5010660;28;20204;-77
2023/11/13 09:23:46;;;;;;;3.92;2.33;;;13.50;72.70;15.30;99905.00;;;;5011040;28;20200;-78
2023/11/13 09:26:13;;;;;;;4.90;2.72;;;13.60;72.70;15.40;99899.00;;;;5017709;28;20200;-77
2023/11/13 09:28:40;;;;;;;4.28;2.30;;;13.70;72.70;15.40;99887.00;;;;5018006;28;20205;-78
2023/11/13 09:31:09;;;;;;;4.07;2.42;;;13.70;72.70;15.50;99882.00;;;;5010532;28;20621;-78
2023/11/13 09:33:40;;;;;;;3.78;2.22;;;13.80;72.80;15.50;99879.00;;;;5009114;28;20303;-78
2023/11/13 09:36:08;;;;;;;2.65;1.92;;;13.80;72.80;15.60;99880.00;;;;5008950;28;20208;-77
2023/11/13 09:38:35;;;;;;;4.50;2.17;;;13.90;72.80;15.60;99875.00;;;;5018550;28;20196;-78
2023/11/13 09:41:04;;;;;;;3.58;2.03;;;13.90;72.80;15.60;99880.00;;;;5015819;28;20568;-78
2023/11/13 09:43:35;;;;;;;3.60;1.88;;;14.00;72.80;15.70;99884.00;;;;5009828;28;20267;-77
2023/11/13 09:46:06;;;;;;;3.70;1.75;;;14.10;72.80;15.70;99869.00;;;;5009513;28;20266;-78
2023/11/13 09:48:46;;;;;;;4.63;2.00;;;14.10;72.80;15.70;99868.00;;;;5008736;28;20255;-78
2023/11/13 09:51:14;;;;;;;3.50;1.63;;;14.20;72.80;15.80;99865.00;;;;5009582;28;20197;-77
2023/11/13 09:53:43;;;;;;;3.72;1.83;;;14.20;72.70;15.90;99853.00;;;;5010421;28;20256;-77
2023/11/13 09:56:15;;;;;;;5.75;2.10;;;14.20;72.60;15.90;99862.00;;;;5029074;28;20204;-77
2023/11/13 09:58:43;;;;;;;5.70;1.77;;;14.30;72.50;16.00;99850.00;;;;5019558;28;20197;-77
2023/11/13 10:01:13;;;;;;;3.42;1.90;;;14.30;72.40;16.00;99847.00;;;;5009671;28;20263;-77
2023/11/13 10:03:41;;;;;;;2.33;1.50;;;14.40;72.50;16.00;99841.00;;;;5008027;28;20200;-77
2023/11/13 10:06:12;;;;;;;2.45;1.48;;;14.40;72.40;16.00;99830.00;;;;5008377;28;20243;-77
2023/11/13 10:08:44;;;;;;;5.25;1.77;;;14.40;72.30;16.00;99823.00;;;;5008861;28;20235;-77
2023/11/13 10:11:12;;;;;;;4.90;1.60;;;14.50;72.30;16.10;99811.00;;;;5001836;28;20201;-77
2023/11/13 10:13:41;;;;;;;4.47;1.70;;;14.50;72.20;16.10;99823.00;;;;5016679;28;20303;-78
2023/11/13 10:16:20;;;;;;;5.45;2.03;;;14.50;72.10;16.00;99801.00;;;;5014173;28;20201;-78
2023/11/13 10:18:49;;;;;;;4.18;1.50;;;14.50;72.10;16.10;99791.00;;;;5005265;28;20228;-77
2023/11/13 10:21:33;;;;;;;4.35;1.52;;;14.50;72.00;16.00;99780.00;;;;5009210;28;20193;-77
2023/11/13 10:24:16;;;;;;;3.10;1.30;;;14.50;72.00;16.00;99767.00;;;;5008007;28;20251;-78
2023/11/13 10:26:48;;;;;;;2.00;1.30;;;14.50;72.00;16.10;99771.00;;;;5008705;28;20221;-78
2023/11/13 10:29:26;;;;;;;2.20;1.10;;;14.50;71.80;16.10;99757.00;;;;5023988;28;20690;-77
2023/11/13 10:31:54;;;;;;;3.67;0.98;;;14.50;71.90;16.10;99751.00;;;;5008266;28;20193;-78
2023/11/13 10:34:23;;;;;;;1.95;0.90;;;14.50;71.80;16.10;99738.00;;;;5000064;28;20211;-78
2023/11/13 10:37:08;;;;;;;2.88;1.17;;;14.50;71.80;16.10;99733.00;;;;5016172;28;20192;-78
2023/11/13 10:39:37;;;;;;;2.10;0.70;;;14.60;72.00;16.20;99710.00;;;;5002586;28;20278;-78
2023/11/13 10:42:06;;;;;;;0.98;0.80;;;14.60;71.80;16.20;99722.00;;;;5008005;28;20196;-78
2023/11/13 10:44:38;;;;;;;1.88;0.68;;;14.60;71.90;16.20;99707.00;;;;5019583;28;20196;-77
2023/11/13 10:47:28;;;;;;;2.40;0.77;;;14.60;71.90;16.10;99698.00;;;;5005894;28;20275;-78
2023/11/13 10:49:58;;;;;;;1.00;0.70;;;14.60;72.00;16.20;99684.00;;;;5004705;28;20211;-78
2023/11/13 10:52:27;;;;;;;2.60;0.70;;;14.60;71.90;16.20;99662.00;;;;5009408;28;20193;-78
2023/11/13 10:54:58;;;;;;;1.05;0.70;;;14.60;71.80;16.20;99669.00;;;;5006541;28;20200;-78